createdAt,value
2016-11-20T00:00:02.905Z,5.41
2016-11-20T00:01:02.811Z,5.39
2016-11-20T00:02:02.794Z,5.39
2016-11-20T00:03:02.794Z,5.43
2016-11-20T00:04:02.782Z,5.36
2016-11-20T00:05:02.775Z,5.32
2016-11-20T00:06:02.767Z,5.3
2016-11-20T00:07:02.772Z,5.3
2016-11-20T00:08:02.769Z,5.29
2016-11-20T00:09:03.000Z,5.36
2016-11-20T00:10:02.741Z,5.3
2016-11-20T00:11:02.755Z,5.23
2016-11-20T00:12:02.736Z,5.23
2016-11-20T00:13:02.729Z,5.3
2016-11-20T00:14:02.755Z,5.29
2016-11-20T00:15:02.758Z,5.33
2016-11-20T00:16:02.703Z,5.29
2016-11-20T00:17:02.701Z,5.25
2016-11-20T00:18:02.701Z,5.28
2016-11-20T00:19:02.699Z,5.3
2016-11-20T00:20:02.681Z,5.21
2016-11-20T00:21:02.673Z,5.21
2016-11-20T00:22:02.672Z,5.28
2016-11-20T00:23:02.672Z,5.3
2016-11-20T00:24:02.650Z,5.33
2016-11-20T00:25:02.640Z,5.25
2016-11-20T00:26:02.636Z,5.25
2016-11-20T00:27:02.623Z,5.29
2016-11-20T00:28:02.622Z,5.26
2016-11-20T00:29:02.621Z,5.29
2016-11-20T00:30:03.108Z,5.3
2016-11-20T00:31:02.601Z,5.28
2016-11-20T00:32:02.588Z,5.28
2016-11-20T00:33:02.587Z,5.26
2016-11-20T00:34:02.584Z,5.26
2016-11-20T00:35:02.571Z,5.18
2016-11-20T00:36:02.573Z,5.28
2016-11-20T00:37:02.558Z,5.25
2016-11-20T00:38:02.555Z,5.32
2016-11-20T00:39:02.546Z,5.26
2016-11-20T00:40:02.545Z,5.33
2016-11-20T00:41:02.529Z,5.29
2016-11-20T00:42:02.529Z,5.28
2016-11-20T00:43:02.534Z,5.29
2016-11-20T00:44:02.549Z,5.35
2016-11-20T00:45:02.613Z,5.29
2016-11-20T00:46:02.499Z,5.28
2016-11-20T00:47:02.504Z,5.36
2016-11-20T00:48:02.486Z,5.29
2016-11-20T00:49:02.475Z,5.32
2016-11-20T00:50:02.472Z,5.36
2016-11-20T00:51:02.471Z,5.33
2016-11-20T00:52:02.781Z,5.29
2016-11-20T00:53:02.453Z,5.35
2016-11-20T00:54:02.465Z,5.3
2016-11-20T00:55:02.438Z,5.28
2016-11-20T00:56:02.441Z,5.25
2016-11-20T00:57:02.430Z,5.28
2016-11-20T00:58:02.415Z,5.25
2016-11-20T00:59:02.426Z,5.25
2016-11-20T01:00:02.553Z,5.26
2016-11-20T01:01:02.398Z,5.28
2016-11-20T01:02:02.402Z,5.26
2016-11-20T01:03:02.386Z,5.21
2016-11-20T01:04:02.411Z,5.29
2016-11-20T01:05:02.383Z,5.28
2016-11-20T01:06:02.655Z,5.18
2016-11-20T01:07:02.359Z,5.28
2016-11-20T01:08:02.348Z,5.23
2016-11-20T01:09:02.664Z,5.28
2016-11-20T01:10:02.337Z,5.26
2016-11-20T01:11:02.331Z,5.28
2016-11-20T01:12:02.331Z,5.3
2016-11-20T01:13:02.330Z,5.29
2016-11-20T01:14:02.317Z,5.25
2016-11-20T01:15:02.754Z,5.25
2016-11-20T01:16:02.987Z,5.43
2016-11-20T01:17:02.650Z,5.3
2016-11-20T01:18:02.311Z,5.41
2016-11-20T01:19:02.290Z,5.28
2016-11-20T01:20:02.297Z,5.33
2016-11-20T01:21:02.265Z,5.39
2016-11-20T01:22:02.269Z,5.39
2016-11-20T01:23:02.267Z,5.32
2016-11-20T01:24:02.257Z,5.46
2016-11-20T01:25:02.239Z,5.36
2016-11-20T01:26:02.229Z,5.29
2016-11-20T01:27:02.224Z,5.38
2016-11-20T01:28:02.220Z,5.29
2016-11-20T01:29:02.215Z,5.35
2016-11-20T01:30:02.472Z,5.29
2016-11-20T01:31:02.517Z,5.26
2016-11-20T01:32:02.196Z,5.26
2016-11-20T01:33:02.187Z,5.29
2016-11-20T01:34:02.191Z,5.29
2016-11-20T01:35:02.177Z,5.25
2016-11-20T01:36:02.169Z,5.21
2016-11-20T01:37:02.180Z,5.25
2016-11-20T01:38:02.161Z,5.29
2016-11-20T01:39:02.155Z,5.28
2016-11-20T01:40:02.161Z,5.28
2016-11-20T01:41:02.155Z,5.33
2016-11-20T01:42:02.132Z,5.3
2016-11-20T01:43:02.120Z,5.26
2016-11-20T01:44:02.117Z,5.29
2016-11-20T01:45:02.108Z,5.33
2016-11-20T01:46:02.107Z,5.32
2016-11-20T01:47:02.101Z,5.26
2016-11-20T01:48:02.098Z,5.32
2016-11-20T01:49:02.095Z,5.28
2016-11-20T01:50:02.088Z,5.28
2016-11-20T01:51:02.066Z,5.2
2016-11-20T01:52:02.059Z,5.15
2016-11-20T01:53:02.054Z,5.2
2016-11-20T01:54:02.049Z,5.17
2016-11-20T01:55:02.042Z,5.15
2016-11-20T01:56:02.043Z,5.17
2016-11-20T01:57:02.030Z,5.11
2016-11-20T01:58:02.028Z,5.15
2016-11-20T01:59:02.023Z,5.12
2016-11-20T02:00:02.016Z,5.15
2016-11-20T02:01:02.003Z,5.11
2016-11-20T02:02:02.284Z,5.11
2016-11-20T02:03:01.991Z,5.05
2016-11-20T02:04:01.980Z,5.05
2016-11-20T02:05:01.977Z,5.12
2016-11-20T02:06:02.005Z,5.11
2016-11-20T02:07:01.970Z,5.11
2016-11-20T02:08:01.989Z,5.15
2016-11-20T02:09:01.950Z,5.04
2016-11-20T02:10:01.939Z,5.07
2016-11-20T02:11:01.934Z,5.08
2016-11-20T02:12:01.928Z,5.07
2016-11-20T02:13:02.244Z,5.17
2016-11-20T02:14:01.914Z,5.15
2016-11-20T02:15:01.921Z,5.14
2016-11-20T02:16:02.244Z,5.15
2016-11-20T02:17:01.896Z,5.15
2016-11-20T02:18:02.288Z,5.15
2016-11-20T02:19:02.484Z,5.12
2016-11-20T02:20:01.877Z,5.1
2016-11-20T02:21:01.883Z,5.05
2016-11-20T02:22:01.884Z,5.07
2016-11-20T02:23:01.868Z,5.1
2016-11-20T02:24:01.846Z,5.07
2016-11-20T02:25:01.838Z,5.14
2016-11-20T02:26:01.841Z,5.02
2016-11-20T02:27:01.830Z,5.04
2016-11-20T02:28:01.819Z,5.08
2016-11-20T02:29:01.820Z,5.05
2016-11-20T02:30:01.818Z,5.08
2016-11-20T02:31:02.200Z,4.99
2016-11-20T02:32:01.801Z,5.1
2016-11-20T02:33:01.800Z,4.96
2016-11-20T02:34:01.783Z,5.04
2016-11-20T02:35:01.770Z,4.99
2016-11-20T02:36:01.766Z,5
2016-11-20T02:37:01.766Z,5
2016-11-20T02:38:01.764Z,5.07
2016-11-20T02:39:01.742Z,5.02
2016-11-20T02:40:01.741Z,5
2016-11-20T02:41:01.748Z,5.02
2016-11-20T02:42:01.732Z,5.08
2016-11-20T02:43:01.746Z,5.08
2016-11-20T02:44:01.713Z,5.07
2016-11-20T02:45:01.702Z,5
2016-11-20T02:46:01.997Z,5.07
2016-11-20T02:47:01.692Z,5.05
2016-11-20T02:48:01.683Z,5.04
2016-11-20T02:49:01.680Z,5.08
2016-11-20T02:50:01.671Z,5.15
2016-11-20T02:51:01.659Z,5.04
2016-11-20T02:52:01.656Z,5.05
2016-11-20T02:53:01.965Z,5.11
2016-11-20T02:54:01.637Z,5.14
2016-11-20T02:55:01.630Z,5.17
2016-11-20T02:56:01.625Z,5.07
2016-11-20T02:57:01.619Z,5.14
2016-11-20T02:58:01.607Z,5.12
2016-11-20T02:59:01.606Z,5.25
2016-11-20T03:00:01.905Z,5.28
2016-11-20T03:01:01.949Z,5.29
2016-11-20T03:02:01.579Z,5.3
2016-11-20T03:03:01.574Z,5.29
2016-11-20T03:04:01.567Z,5.29
2016-11-20T03:05:01.562Z,5.28
2016-11-20T03:06:01.552Z,5.39
2016-11-20T03:07:01.544Z,5.41
2016-11-20T03:08:01.548Z,5.43
2016-11-20T03:09:01.533Z,5.38
2016-11-20T03:10:01.849Z,5.39
2016-11-20T03:11:01.518Z,5.51
2016-11-20T03:12:01.519Z,5.48
2016-11-20T03:13:01.519Z,5.5
2016-11-20T03:14:01.499Z,5.44
2016-11-20T03:15:01.499Z,5.48
2016-11-20T03:16:01.537Z,5.48
2016-11-20T03:17:01.480Z,5.48
2016-11-20T03:18:01.471Z,5.51
2016-11-20T03:19:01.466Z,5.53
2016-11-20T03:20:01.458Z,5.61
2016-11-20T03:21:01.453Z,5.56
2016-11-20T03:22:01.446Z,5.61
2016-11-20T03:23:01.446Z,5.57
2016-11-20T03:24:01.437Z,5.56
2016-11-20T03:25:01.430Z,5.57
2016-11-20T03:26:01.417Z,5.54
2016-11-20T03:27:01.417Z,5.57
2016-11-20T03:28:01.406Z,5.59
2016-11-20T03:29:01.398Z,5.51
2016-11-20T03:30:01.394Z,5.59
2016-11-20T03:31:01.635Z,5.54
2016-11-20T03:32:01.384Z,5.59
2016-11-20T03:33:01.383Z,5.5
2016-11-20T03:34:01.379Z,5.51
2016-11-20T03:35:01.379Z,5.51
2016-11-20T03:36:01.358Z,5.53
2016-11-20T03:37:01.366Z,5.47
2016-11-20T03:38:01.384Z,5.5
2016-11-20T03:39:01.343Z,5.51
2016-11-20T03:40:01.345Z,5.41
2016-11-20T03:41:01.316Z,5.44
2016-11-20T03:42:01.353Z,5.35
2016-11-20T03:43:01.321Z,5.43
2016-11-20T03:44:01.300Z,5.46
2016-11-20T03:45:01.599Z,5.33
2016-11-20T03:46:01.298Z,5.32
2016-11-20T03:47:01.295Z,5.33
2016-11-20T03:48:01.267Z,5.36
2016-11-20T03:49:01.263Z,5.41
2016-11-20T03:50:01.258Z,5.43
2016-11-20T03:51:01.253Z,5.44
2016-11-20T03:52:01.486Z,5.38
2016-11-20T03:53:01.238Z,5.47
2016-11-20T03:54:01.244Z,5.43
2016-11-20T03:55:01.219Z,5.47
2016-11-20T03:56:01.214Z,5.48
2016-11-20T03:57:01.220Z,5.43
2016-11-20T03:58:01.197Z,5.44
2016-11-20T03:59:01.194Z,5.47
2016-11-20T04:00:01.185Z,5.53
2016-11-20T04:01:01.183Z,5.53
2016-11-20T04:02:01.175Z,5.54
2016-11-20T04:03:01.164Z,5.48
2016-11-20T04:04:01.161Z,5.47
2016-11-20T04:05:01.165Z,5.47
2016-11-20T04:06:01.152Z,5.53
2016-11-20T04:07:01.141Z,5.56
2016-11-20T04:08:01.163Z,5.51
2016-11-20T04:09:01.124Z,5.53
2016-11-20T04:10:01.118Z,5.54
2016-11-20T04:11:01.113Z,5.48
2016-11-20T04:12:01.109Z,5.59
2016-11-20T04:13:01.112Z,5.54
2016-11-20T04:14:01.090Z,5.54
2016-11-20T04:15:01.110Z,5.51
2016-11-20T04:16:01.094Z,5.46
2016-11-20T04:17:01.071Z,5.51
2016-11-20T04:18:01.065Z,5.56
2016-11-20T04:19:01.060Z,5.56
2016-11-20T04:20:01.052Z,5.62
2016-11-20T04:21:01.047Z,5.59
2016-11-20T04:22:01.046Z,5.5
2016-11-20T04:23:01.348Z,5.56
2016-11-20T04:24:01.024Z,5.53
2016-11-20T04:25:01.266Z,5.51
2016-11-20T04:26:01.014Z,5.57
2016-11-20T04:27:01.008Z,5.54
2016-11-20T04:28:00.999Z,5.46
2016-11-20T04:29:00.996Z,5.57
2016-11-20T04:30:00.989Z,5.51
2016-11-20T04:31:00.992Z,5.47
2016-11-20T04:32:01.058Z,5.61
2016-11-20T04:33:00.971Z,5.53
2016-11-20T04:34:00.966Z,5.62
2016-11-20T04:35:00.968Z,5.59
2016-11-20T04:36:00.960Z,5.64
2016-11-20T04:37:00.943Z,5.69
2016-11-20T04:38:00.941Z,5.65
2016-11-20T04:39:00.930Z,5.68
2016-11-20T04:40:00.926Z,5.69
2016-11-20T04:41:00.917Z,5.62
2016-11-20T04:42:00.922Z,5.66
2016-11-20T04:43:00.916Z,5.66
2016-11-20T04:44:00.902Z,5.71
2016-11-20T04:45:00.917Z,5.69
2016-11-20T04:46:00.887Z,5.62
2016-11-20T04:47:00.931Z,5.64
2016-11-20T04:48:00.872Z,5.69
2016-11-20T04:49:00.866Z,5.72
2016-11-20T04:50:00.864Z,5.68
2016-11-20T04:51:01.163Z,5.68
2016-11-20T04:52:00.854Z,5.66
2016-11-20T04:53:00.880Z,5.66
2016-11-20T04:54:00.846Z,5.65
2016-11-20T04:55:00.828Z,5.62
2016-11-20T04:56:00.824Z,5.56
2016-11-20T04:57:00.817Z,5.59
2016-11-20T04:58:00.813Z,5.53
2016-11-20T04:59:00.805Z,5.56
2016-11-20T05:00:00.802Z,5.54
2016-11-20T05:01:00.821Z,5.57
2016-11-20T05:02:01.035Z,5.5
2016-11-20T05:03:00.790Z,5.47
2016-11-20T05:04:00.770Z,5.56
2016-11-20T05:05:00.792Z,5.53
2016-11-20T05:06:00.760Z,5.44
2016-11-20T05:07:00.754Z,5.47
2016-11-20T05:08:00.751Z,5.41
2016-11-20T05:09:00.739Z,5.39
2016-11-20T05:10:00.739Z,5.36
2016-11-20T05:11:00.723Z,5.29
2016-11-20T05:12:00.728Z,5.23
2016-11-20T05:13:00.722Z,5.29
2016-11-20T05:14:00.748Z,5.14
2016-11-20T05:15:00.707Z,5.15
2016-11-20T05:16:00.693Z,5.11
2016-11-20T05:17:01.096Z,5.05
2016-11-20T05:18:00.694Z,4.97
2016-11-20T05:19:00.682Z,4.99
2016-11-20T05:20:00.671Z,5.02
2016-11-20T05:21:00.683Z,5
2016-11-20T05:22:00.687Z,4.96
2016-11-20T05:23:00.650Z,4.93
2016-11-20T05:24:00.643Z,4.89
2016-11-20T05:25:00.647Z,4.96
2016-11-20T05:26:00.624Z,4.82
2016-11-20T05:27:00.941Z,4.86
2016-11-20T05:28:00.649Z,4.82
2016-11-20T05:29:00.606Z,4.86
2016-11-20T05:30:00.600Z,4.84
2016-11-20T05:31:00.597Z,4.75
2016-11-20T05:32:00.787Z,4.78
2016-11-20T05:33:00.579Z,4.71
2016-11-20T05:34:00.571Z,4.71
2016-11-20T05:35:00.567Z,4.74
2016-11-20T05:36:00.561Z,4.74
2016-11-20T05:37:00.553Z,4.75
2016-11-20T05:38:00.790Z,4.86
2016-11-20T05:39:00.545Z,4.86
2016-11-20T05:40:00.529Z,4.8
2016-11-20T05:41:00.522Z,4.82
2016-11-20T05:42:00.517Z,4.86
2016-11-20T05:43:00.508Z,4.74
2016-11-20T05:44:00.516Z,4.75
2016-11-20T05:45:00.497Z,4.75
2016-11-20T05:46:00.505Z,4.75
2016-11-20T05:47:00.641Z,4.74
2016-11-20T05:48:00.488Z,4.66
2016-11-20T05:49:00.473Z,4.5
2016-11-20T05:50:00.476Z,4.5
2016-11-20T05:51:00.459Z,4.53
2016-11-20T05:52:00.458Z,4.45
2016-11-20T05:53:00.442Z,4.38
2016-11-20T05:54:00.447Z,4.4
2016-11-20T05:55:00.441Z,4.3
2016-11-20T05:56:00.431Z,4.22
2016-11-20T05:57:00.417Z,4.28
2016-11-20T05:58:00.414Z,4.26
2016-11-20T05:59:00.415Z,4.32
2016-11-20T06:00:00.404Z,4.26
2016-11-20T06:01:00.403Z,4.34
2016-11-20T06:02:00.755Z,4.32
2016-11-20T06:03:00.385Z,4.38
2016-11-20T06:04:00.372Z,4.31
2016-11-20T06:05:00.366Z,4.28
2016-11-20T06:06:00.365Z,4.34
2016-11-20T06:07:00.347Z,4.32
2016-11-20T06:08:00.335Z,4.44
2016-11-20T06:09:00.346Z,4.44
2016-11-20T06:10:00.320Z,4.49
2016-11-20T06:11:00.317Z,4.5
2016-11-20T06:12:00.315Z,4.56
2016-11-20T06:13:00.298Z,4.44
2016-11-20T06:14:00.612Z,4.52
2016-11-20T06:15:00.297Z,4.58
2016-11-20T06:16:00.594Z,4.5
2016-11-20T06:17:00.265Z,4.6
2016-11-20T06:18:00.302Z,4.66
2016-11-20T06:19:00.252Z,4.52
2016-11-20T06:20:00.248Z,4.5
2016-11-20T06:21:00.246Z,4.55
2016-11-20T06:22:00.244Z,4.5
2016-11-20T06:23:00.243Z,4.59
2016-11-20T06:24:00.214Z,4.58
2016-11-20T06:25:00.211Z,4.49
2016-11-20T06:26:00.203Z,4.52
2016-11-20T06:27:00.194Z,4.58
2016-11-20T06:28:00.184Z,4.6
2016-11-20T06:29:00.179Z,4.52
2016-11-20T06:30:00.181Z,4.49
2016-11-20T06:31:00.163Z,4.58
2016-11-20T06:32:00.165Z,4.56
2016-11-20T06:33:00.148Z,4.56
2016-11-20T06:34:00.145Z,4.55
2016-11-20T06:35:00.134Z,4.63
2016-11-20T06:36:00.134Z,4.62
2016-11-20T06:37:00.129Z,4.6
2016-11-20T06:38:00.112Z,4.73
2016-11-20T06:39:00.119Z,4.75
2016-11-20T06:40:00.116Z,4.84
2016-11-20T06:41:00.334Z,4.86
2016-11-20T06:42:00.081Z,5.02
2016-11-20T06:43:00.075Z,4.99
2016-11-20T06:44:00.089Z,5.04
2016-11-20T06:45:00.076Z,5.12
2016-11-20T06:46:00.057Z,5.1
2016-11-20T06:47:00.055Z,5.07
2016-11-20T06:48:00.088Z,5.14
2016-11-20T06:49:00.060Z,5.11
2016-11-20T06:50:00.026Z,5.14
2016-11-20T06:51:00.025Z,5.1
2016-11-20T06:52:00.010Z,5.12
2016-11-20T06:53:00.015Z,5.11
2016-11-20T06:54:00.008Z,5.02
2016-11-20T06:55:00.004Z,5.02
2016-11-20T06:55:59.979Z,4.97
2016-11-20T06:56:59.975Z,5
2016-11-20T06:57:59.963Z,5
2016-11-20T06:58:59.960Z,4.96
2016-11-20T06:59:59.949Z,5
2016-11-20T07:00:59.944Z,4.99
2016-11-20T07:01:59.937Z,4.96
2016-11-20T07:03:00.144Z,4.97
2016-11-20T07:03:59.933Z,5.05
2016-11-20T07:04:59.928Z,5.02
2016-11-20T07:05:59.907Z,5
2016-11-20T07:06:59.909Z,4.96
2016-11-20T07:07:59.896Z,4.94
2016-11-20T07:08:59.884Z,4.96
2016-11-20T07:10:00.132Z,5
2016-11-20T07:10:59.872Z,5.04
2016-11-20T07:11:59.870Z,5.02
2016-11-20T07:12:59.870Z,5.1
2016-11-20T07:13:59.850Z,5.14
2016-11-20T07:14:59.850Z,5.17
2016-11-20T07:15:59.848Z,5.21
2016-11-20T07:16:59.831Z,5.25
2016-11-20T07:17:59.921Z,5.23
2016-11-20T07:19:00.058Z,5.28
2016-11-20T07:19:59.814Z,5.32
2016-11-20T07:20:59.803Z,5.41
2016-11-20T07:21:59.796Z,5.39
2016-11-20T07:22:59.796Z,5.44
2016-11-20T07:23:59.781Z,5.43
2016-11-20T07:24:59.800Z,5.5
2016-11-20T07:25:59.769Z,5.46
2016-11-20T07:26:59.760Z,5.48
2016-11-20T07:27:59.994Z,5.43
2016-11-20T07:28:59.745Z,5.48
2016-11-20T07:29:59.756Z,5.61
2016-11-20T07:30:59.734Z,5.54
2016-11-20T07:31:59.723Z,5.51
2016-11-20T07:32:59.772Z,5.5
2016-11-20T07:33:59.719Z,5.48
2016-11-20T07:34:59.705Z,5.46
2016-11-20T07:35:59.699Z,5.41
2016-11-20T07:36:59.693Z,5.44
2016-11-20T07:37:59.695Z,5.46
2016-11-20T07:38:59.681Z,5.41
2016-11-20T07:39:59.678Z,5.41
2016-11-20T07:40:59.664Z,5.39
2016-11-20T07:41:59.662Z,5.32
2016-11-20T07:42:59.650Z,5.38
2016-11-20T07:43:59.645Z,5.41
2016-11-20T07:44:59.636Z,5.39
2016-11-20T07:45:59.633Z,5.41
2016-11-20T07:46:59.626Z,5.33
2016-11-20T07:47:59.682Z,5.33
2016-11-20T07:48:59.611Z,5.29
2016-11-20T07:49:59.604Z,5.38
2016-11-20T07:50:59.604Z,5.35
2016-11-20T07:51:59.600Z,5.32
2016-11-20T07:52:59.588Z,5.33
2016-11-20T07:53:59.582Z,5.41
2016-11-20T07:54:59.579Z,5.41
2016-11-20T07:55:59.568Z,5.33
2016-11-20T07:56:59.559Z,5.44
2016-11-20T07:57:59.553Z,5.29
2016-11-20T07:58:59.554Z,5.38
2016-11-20T07:59:59.542Z,5.3
2016-11-20T08:00:59.535Z,5.39
2016-11-20T08:01:59.535Z,5.44
2016-11-20T08:02:59.623Z,5.43
2016-11-20T08:03:59.512Z,5.41
2016-11-20T08:04:59.510Z,5.46
2016-11-20T08:05:59.509Z,5.44
2016-11-20T08:06:59.504Z,5.44
2016-11-20T08:07:59.507Z,5.46
2016-11-20T08:08:59.488Z,5.57
2016-11-20T08:09:59.478Z,5.64
2016-11-20T08:10:59.472Z,5.56
2016-11-20T08:11:59.470Z,5.54
2016-11-20T08:12:59.457Z,5.61
2016-11-20T08:13:59.459Z,5.57
2016-11-20T08:14:59.447Z,5.57
2016-11-20T08:15:59.443Z,5.61
2016-11-20T08:16:59.464Z,5.61
2016-11-20T08:17:59.498Z,5.65
2016-11-20T08:18:59.420Z,5.66
2016-11-20T08:19:59.414Z,5.66
2016-11-20T08:20:59.408Z,5.69
2016-11-20T08:21:59.398Z,5.8
2016-11-20T08:22:59.394Z,5.84
2016-11-20T08:23:59.390Z,5.82
2016-11-20T08:24:59.391Z,5.82
2016-11-20T08:25:59.385Z,5.97
2016-11-20T08:26:59.369Z,5.93
2016-11-20T08:27:59.365Z,5.94
2016-11-20T08:28:59.368Z,6.01
2016-11-20T08:29:59.350Z,5.99
2016-11-20T08:30:59.344Z,6.14
2016-11-20T08:31:59.336Z,6.09
2016-11-20T08:32:59.330Z,6.17
2016-11-20T08:33:59.327Z,6.2
2016-11-20T08:34:59.573Z,6.24
2016-11-20T08:35:59.311Z,6.26
2016-11-20T08:36:59.314Z,6.26
2016-11-20T08:37:59.313Z,6.26
2016-11-20T08:38:59.311Z,6.26
2016-11-20T08:39:59.296Z,6.3
2016-11-20T08:40:59.283Z,6.41
2016-11-20T08:41:59.275Z,6.51
2016-11-20T08:42:59.273Z,6.54
2016-11-20T08:43:59.264Z,6.51
2016-11-20T08:44:59.256Z,6.59
2016-11-20T08:45:59.255Z,6.64
2016-11-20T08:46:59.253Z,6.67
2016-11-20T08:47:59.285Z,6.74
2016-11-20T08:48:59.298Z,6.72
2016-11-20T08:49:59.245Z,6.81
2016-11-20T08:50:59.225Z,6.85
2016-11-20T08:51:59.221Z,6.96
2016-11-20T08:52:59.215Z,6.97
2016-11-20T08:53:59.207Z,7.1
2016-11-20T08:54:59.203Z,7.18
2016-11-20T08:55:59.224Z,7.15
2016-11-20T08:56:59.200Z,7.23
2016-11-20T08:57:59.190Z,7.35
2016-11-20T08:58:59.188Z,7.39
2016-11-20T08:59:59.175Z,7.38
2016-11-20T09:00:59.172Z,7.56
2016-11-20T09:01:59.170Z,7.5
2016-11-20T09:02:59.204Z,7.57
2016-11-20T09:03:59.921Z,7.66
2016-11-20T09:04:59.151Z,7.73
2016-11-20T09:05:59.149Z,7.66
2016-11-20T09:06:59.146Z,7.8
2016-11-20T09:07:59.136Z,7.85
2016-11-20T09:08:59.133Z,7.91
2016-11-20T09:09:59.124Z,7.8
2016-11-20T09:10:59.128Z,7.95
2016-11-20T09:11:59.131Z,8.01
2016-11-20T09:12:59.117Z,8
2016-11-20T09:13:59.136Z,7.91
2016-11-20T09:14:59.103Z,7.95
2016-11-20T09:15:59.098Z,8.05
2016-11-20T09:16:59.096Z,8.09
2016-11-20T09:17:59.087Z,8.15
2016-11-20T09:18:59.479Z,8.09
2016-11-20T09:19:59.115Z,8.18
2016-11-20T09:20:59.073Z,8.27
2016-11-20T09:21:59.072Z,8.31
2016-11-20T09:22:59.068Z,8.24
2016-11-20T09:23:59.072Z,8.37
2016-11-20T09:24:59.441Z,8.38
2016-11-20T09:25:59.053Z,8.46
2016-11-20T09:26:59.052Z,8.46
2016-11-20T09:27:59.045Z,8.49
2016-11-20T09:28:59.062Z,8.61
2016-11-20T09:29:59.049Z,8.63
2016-11-20T09:30:59.032Z,8.67
2016-11-20T09:31:59.028Z,8.56
2016-11-20T09:32:59.027Z,8.63
2016-11-20T09:33:59.418Z,8.66
2016-11-20T09:34:59.016Z,8.67
2016-11-20T09:35:59.016Z,8.71
2016-11-20T09:36:59.004Z,8.69
2016-11-20T09:37:59.018Z,8.82
2016-11-20T09:38:59.005Z,8.92
2016-11-20T09:39:59.001Z,8.92
2016-11-20T09:40:58.989Z,9.03
2016-11-20T09:41:58.992Z,9.11
2016-11-20T09:42:58.989Z,9.18
2016-11-20T09:43:58.980Z,9.18
2016-11-20T09:44:58.975Z,9.16
2016-11-20T09:45:58.970Z,9.26
2016-11-20T09:46:58.966Z,9.28
2016-11-20T09:47:58.968Z,9.39
2016-11-20T09:48:59.008Z,9.29
2016-11-20T09:49:58.963Z,9.31
2016-11-20T09:50:58.958Z,9.31
2016-11-20T09:51:58.947Z,9.29
2016-11-20T09:52:58.942Z,9.36
2016-11-20T09:53:59.255Z,9.47
2016-11-20T09:54:59.184Z,9.4
2016-11-20T09:55:58.939Z,9.43
2016-11-20T09:56:58.923Z,9.44
2016-11-20T09:57:58.924Z,9.44
2016-11-20T09:58:58.926Z,9.55
2016-11-20T09:59:58.925Z,9.62
2016-11-20T10:00:58.912Z,9.74
2016-11-20T10:01:58.906Z,9.72
2016-11-20T10:02:58.905Z,9.86
2016-11-20T10:03:59.157Z,9.84
2016-11-20T10:04:58.899Z,10.01
2016-11-20T10:05:58.889Z,10.01
2016-11-20T10:06:58.893Z,10.2
2016-11-20T10:07:58.888Z,10.2
2016-11-20T10:08:59.195Z,10.15
2016-11-20T10:09:58.881Z,10.28
2016-11-20T10:10:58.874Z,10.3
2016-11-20T10:11:58.878Z,10.31
2016-11-20T10:12:58.869Z,10.31
2016-11-20T10:13:58.864Z,10.37
2016-11-20T10:14:58.862Z,10.4
2016-11-20T10:15:58.863Z,10.42
2016-11-20T10:16:58.856Z,10.53
2016-11-20T10:17:58.859Z,10.57
2016-11-20T10:18:58.900Z,10.63
2016-11-20T10:19:58.852Z,10.54
2016-11-20T10:20:58.844Z,10.68
2016-11-20T10:21:58.869Z,10.74
2016-11-20T10:22:59.811Z,10.75
2016-11-20T10:23:58.874Z,10.86
2016-11-20T10:24:58.841Z,10.86
2016-11-20T10:25:58.828Z,10.9
2016-11-20T10:26:58.826Z,10.92
2016-11-20T10:27:58.848Z,11.05
2016-11-20T10:28:58.822Z,11.17
2016-11-20T10:29:58.824Z,11.17
2016-11-20T10:30:58.817Z,11.27
2016-11-20T10:31:58.848Z,11.35
2016-11-20T10:32:58.810Z,11.33
2016-11-20T10:33:58.861Z,11.37
2016-11-20T10:34:58.805Z,11.4
2016-11-20T10:35:58.808Z,11.52
2016-11-20T10:36:58.802Z,11.72
2016-11-20T10:37:58.799Z,11.65
2016-11-20T10:38:58.800Z,11.73
2016-11-20T10:39:58.796Z,11.77
2016-11-20T10:40:58.790Z,11.83
2016-11-20T10:41:58.792Z,11.86
2016-11-20T10:42:58.816Z,12.02
2016-11-20T10:43:58.789Z,11.99
2016-11-20T10:44:58.782Z,12.06
2016-11-20T10:45:58.784Z,12.18
2016-11-20T10:46:58.779Z,12.18
2016-11-20T10:47:58.780Z,12.24
2016-11-20T10:48:58.829Z,12.28
2016-11-20T10:49:59.025Z,12.22
2016-11-20T10:50:58.784Z,12.47
2016-11-20T10:51:58.780Z,12.49
2016-11-20T10:52:58.770Z,12.6
2016-11-20T10:53:58.774Z,12.62
2016-11-20T10:54:58.763Z,12.68
2016-11-20T10:55:58.791Z,12.73
2016-11-20T10:56:58.766Z,12.78
2016-11-20T10:57:58.766Z,12.78
2016-11-20T10:58:58.768Z,12.82
2016-11-20T10:59:58.760Z,12.93
2016-11-20T11:00:59.072Z,13.01
2016-11-20T11:01:58.757Z,13
2016-11-20T11:02:58.772Z,13.03
2016-11-20T11:03:58.866Z,13.18
2016-11-20T11:04:58.755Z,13.33
2016-11-20T11:05:58.796Z,13.37
2016-11-20T11:06:58.755Z,13.49
2016-11-20T11:07:58.750Z,13.54
2016-11-20T11:08:58.758Z,13.57
2016-11-20T11:09:58.746Z,13.65
2016-11-20T11:10:58.988Z,13.71
2016-11-20T11:11:59.457Z,13.81
2016-11-20T11:12:58.748Z,13.86
2016-11-20T11:13:58.753Z,13.78
2016-11-20T11:14:58.748Z,13.89
2016-11-20T11:15:58.744Z,13.92
2016-11-20T11:16:58.745Z,13.97
2016-11-20T11:17:58.746Z,13.99
2016-11-20T11:18:58.856Z,13.99
2016-11-20T11:19:58.744Z,14.03
2016-11-20T11:20:58.778Z,14
2016-11-20T11:21:58.747Z,14.14
2016-11-20T11:22:58.743Z,14.11
2016-11-20T11:23:58.741Z,14.18
2016-11-20T11:24:58.744Z,14.28
2016-11-20T11:25:58.744Z,14.29
2016-11-20T11:26:58.746Z,14.3
2016-11-20T11:27:58.749Z,14.26
2016-11-20T11:28:58.744Z,14.28
2016-11-20T11:29:58.751Z,14.3
2016-11-20T11:30:58.747Z,14.32
2016-11-20T11:31:58.746Z,14.35
2016-11-20T11:32:58.750Z,14.48
2016-11-20T11:33:58.890Z,14.36
2016-11-20T11:34:58.751Z,14.36
2016-11-20T11:35:58.741Z,14.33
2016-11-20T11:36:58.751Z,14.35
2016-11-20T11:37:58.755Z,14.32
2016-11-20T11:38:58.754Z,14.36
2016-11-20T11:39:58.741Z,14.36
2016-11-20T11:40:58.741Z,14.37
2016-11-20T11:41:58.742Z,14.28
2016-11-20T11:42:58.753Z,14.35
2016-11-20T11:43:58.738Z,14.26
2016-11-20T11:44:58.756Z,14.35
2016-11-20T11:45:58.738Z,14.29
2016-11-20T11:46:58.737Z,14.23
2016-11-20T11:47:58.740Z,14.28
2016-11-20T11:48:59.167Z,14.22
2016-11-20T11:49:58.746Z,14.2
2016-11-20T11:50:58.739Z,14.2
2016-11-20T11:51:58.736Z,14.41
2016-11-20T11:52:58.744Z,14.32
2016-11-20T11:53:58.744Z,14.37
2016-11-20T11:54:58.738Z,14.33
2016-11-20T11:55:58.764Z,14.32
2016-11-20T11:56:58.744Z,14.36
2016-11-20T11:57:58.737Z,14.41
2016-11-20T11:58:58.976Z,14.4
2016-11-20T11:59:58.734Z,14.41
2016-11-20T12:00:58.733Z,14.41
2016-11-20T12:01:58.990Z,14.48
2016-11-20T12:02:58.735Z,14.53
2016-11-20T12:03:58.955Z,14.5
2016-11-20T12:04:58.735Z,14.54
2016-11-20T12:05:58.732Z,14.6
2016-11-20T12:06:58.735Z,14.59
2016-11-20T12:07:58.729Z,14.58
2016-11-20T12:08:58.752Z,14.58
2016-11-20T12:09:58.735Z,14.59
2016-11-20T12:10:58.731Z,14.66
2016-11-20T12:11:58.731Z,14.6
2016-11-20T12:12:58.743Z,14.63
2016-11-20T12:13:58.736Z,14.72
2016-11-20T12:14:58.728Z,14.72
2016-11-20T12:15:58.727Z,14.68
2016-11-20T12:16:58.733Z,14.72
2016-11-20T12:17:58.736Z,14.73
2016-11-20T12:18:59.027Z,14.81
2016-11-20T12:19:58.976Z,14.84
2016-11-20T12:20:58.728Z,14.86
2016-11-20T12:21:58.726Z,14.92
2016-11-20T12:22:58.725Z,14.88
2016-11-20T12:23:58.725Z,14.86
2016-11-20T12:24:58.726Z,14.88
2016-11-20T12:25:59.042Z,14.89
2016-11-20T12:26:59.107Z,14.94
2016-11-20T12:27:58.729Z,15
2016-11-20T12:28:58.734Z,15.06
2016-11-20T12:29:58.723Z,15.02
2016-11-20T12:30:58.723Z,15.02
2016-11-20T12:31:59.038Z,15.15
2016-11-20T12:32:58.870Z,15.15
2016-11-20T12:33:59.073Z,15.21
2016-11-20T12:34:58.726Z,15.22
2016-11-20T12:35:58.728Z,15.11
2016-11-20T12:36:58.723Z,15.21
2016-11-20T12:37:58.726Z,15.24
2016-11-20T12:38:58.730Z,15.22
2016-11-20T12:39:58.729Z,15.25
2016-11-20T12:40:58.727Z,15.27
2016-11-20T12:41:58.728Z,15.31
2016-11-20T12:42:58.741Z,15.33
2016-11-20T12:43:58.730Z,15.31
2016-11-20T12:44:58.731Z,15.22
2016-11-20T12:45:58.727Z,15.33
2016-11-20T12:46:58.731Z,15.35
2016-11-20T12:47:58.729Z,15.25
2016-11-20T12:48:58.791Z,15.24
2016-11-20T12:49:59.042Z,15.24
2016-11-20T12:50:58.731Z,15.33
2016-11-20T12:51:58.729Z,15.36
2016-11-20T12:52:59.425Z,15.36
2016-11-20T12:53:58.732Z,15.37
2016-11-20T12:54:58.728Z,15.37
2016-11-20T12:55:58.732Z,15.37
2016-11-20T12:56:58.733Z,15.36
2016-11-20T12:57:58.766Z,15.39
2016-11-20T12:58:59.042Z,15.37
2016-11-20T12:59:58.733Z,15.33
2016-11-20T13:00:58.731Z,15.42
2016-11-20T13:01:58.732Z,15.37
2016-11-20T13:02:58.733Z,15.42
2016-11-20T13:03:58.986Z,15.46
2016-11-20T13:04:58.732Z,15.44
2016-11-20T13:05:58.733Z,15.39
2016-11-20T13:06:58.734Z,15.36
2016-11-20T13:07:58.740Z,15.4
2016-11-20T13:08:58.738Z,15.4
2016-11-20T13:09:58.734Z,15.44
2016-11-20T13:10:58.736Z,15.51
2016-11-20T13:11:58.740Z,15.52
2016-11-20T13:12:58.737Z,15.58
2016-11-20T13:13:58.740Z,15.52
2016-11-20T13:14:58.737Z,15.59